Time;durP1;ratioP1;P1;durP2;ratioP2;P2;SDS_P1;SDS_P2;PMS_P1;PMS_P2;Temp;Humidity;BMP_temperature;BMP_pressure;BME280_temperature;BME280_humidity;BME280_pressure;Samples;Min_cycle;Max_cycle;Signal;HPM_P1;HPM_P2
2021/06/06 00:01:09;;;;;;;45.67;17.57;;;18.10;1.00;;;;;;5036301;28;20765;-73
2021/06/06 00:03:39;;;;;;;45.13;18.50;;;18.10;1.00;;;;;;5043917;28;20729;-72
2021/06/06 00:06:11;;;;;;;48.13;17.93;;;18.10;1.00;;;;;;5056222;28;20408;-72
2021/06/06 00:08:40;;;;;;;51.13;19.00;;;18.10;1.00;;;;;;5054172;28;21020;-73
2021/06/06 00:11:34;;;;;;;46.70;18.30;;;18.10;1.00;;;;;;5049560;28;20878;-73
2021/06/06 00:14:03;;;;;;;49.60;18.47;;;18.10;1.00;;;;;;5042082;28;20432;-73
2021/06/06 00:16:32;;;;;;;43.00;18.07;;;18.10;1.00;;;;;;5055782;28;20416;-73
2021/06/06 00:18:59;;;;;;;45.50;18.23;;;;;;;;;;5055895;28;20821;-73
2021/06/06 00:21:26;;;;;;;48.20;19.20;;;18.10;1.00;;;;;;5055573;28;20391;-73
2021/06/06 00:23:53;;;;;;;55.40;19.10;;;18.10;1.00;;;;;;5053617;28;20447;-73
2021/06/06 00:26:19;;;;;;;54.90;20.27;;;18.10;1.00;;;;;;5055995;28;20502;-73
2021/06/06 00:28:46;;;;;;;61.53;18.67;;;;;;;;;;5055604;28;20473;-73
2021/06/06 00:31:12;;;;;;;50.97;19.80;;;18.10;1.00;;;;;;5055686;28;20837;-73
2021/06/06 00:33:39;;;;;;;47.63;19.00;;;18.10;1.00;;;;;;5053770;28;20390;-73
2021/06/06 00:36:10;;;;;;;53.60;18.57;;;18.10;1.00;;;;;;5054585;28;20743;-73
2021/06/06 00:38:39;;;;;;;49.47;19.47;;;18.10;1.00;;;;;;5034103;28;20461;-73
2021/06/06 00:41:06;;;;;;;50.80;19.47;;;18.10;1.00;;;;;;5035877;28;20395;-73
2021/06/06 00:43:34;;;;;;;52.83;20.90;;;;;;;;;;5036564;28;20781;-73
2021/06/06 00:46:00;;;;;;;56.77;21.73;;;18.10;1.00;;;;;;5048383;28;20396;-73
2021/06/06 00:48:26;;;;;;;57.23;21.57;;;18.10;1.00;;;;;;5035399;28;20426;-73
2021/06/06 00:50:57;;;;;;;62.80;22.47;;;18.10;1.00;;;;;;5035295;28;20394;-73
2021/06/06 00:53:39;;;;;;;59.07;22.10;;;18.10;1.00;;;;;;5035328;28;20157;-73
2021/06/06 00:56:09;;;;;;;66.63;24.13;;;18.00;1.00;;;;;;5050899;28;20421;-75
2021/06/06 00:58:40;;;;;;;64.80;23.83;;;18.00;1.00;;;;;;5053710;28;20464;-75
2021/06/06 01:01:11;;;;;;;57.90;22.20;;;18.00;1.00;;;;;;5049462;28;20407;-75
2021/06/06 01:04:14;;;;;;;62.40;24.70;;;18.00;1.00;;;;;;5043365;28;20518;-75
2021/06/06 01:06:45;;;;;;;66.30;24.67;;;18.00;1.00;;;;;;5042575;28;20469;-75
2021/06/06 01:09:50;;;;;;;65.33;24.97;;;18.00;1.00;;;;;;5035158;28;20377;-75
2021/06/06 01:12:26;;;;;;;65.90;22.87;;;18.00;1.00;;;;;;5035001;28;20785;-75
2021/06/06 01:15:20;;;;;;;62.50;23.93;;;18.00;1.00;;;;;;5052225;28;20763;-75
2021/06/06 01:18:01;;;;;;;65.50;25.33;;;18.00;1.00;;;;;;5034548;28;20429;-75
2021/06/06 01:20:45;;;;;;;74.10;25.00;;;17.90;1.00;;;;;;5034728;28;20483;-75
2021/06/06 01:23:38;;;;;;;69.03;26.30;;;18.00;1.00;;;;;;5034329;28;20404;-75
2021/06/06 01:26:25;;;;;;;77.20;26.80;;;17.90;1.00;;;;;;5038676;28;20444;-75
2021/06/06 01:29:25;;;;;;;67.30;23.27;;;18.00;1.00;;;;;;5054247;28;20439;-75
2021/06/06 01:32:18;;;;;;;80.43;26.00;;;18.00;1.00;;;;;;5034613;28;20781;-76
2021/06/06 01:34:53;;;;;;;87.70;28.20;;;17.90;1.00;;;;;;5050747;28;20422;-76
2021/06/06 01:37:36;;;;;;;78.90;25.73;;;17.90;1.00;;;;;;5045317;28;20417;-75
2021/06/06 01:40:12;;;;;;;65.03;24.20;;;17.90;1.00;;;;;;5035115;28;20395;-74
2021/06/06 01:42:42;;;;;;;75.07;28.60;;;18.00;1.00;;;;;;5049436;28;20405;-73
2021/06/06 01:45:22;;;;;;;80.87;27.80;;;18.00;1.00;;;;;;5032778;28;20398;-72
2021/06/06 01:47:50;;;;;;;89.10;27.40;;;18.00;1.00;;;;;;5044753;28;20491;-73
2021/06/06 01:50:26;;;;;;;72.80;25.93;;;18.00;1.00;;;;;;5064732;28;20907;-73
2021/06/06 01:52:55;;;;;;;77.10;28.47;;;17.90;1.00;;;;;;5033900;28;20929;-73
2021/06/06 01:55:24;;;;;;;79.47;27.63;;;18.00;1.00;;;;;;5034544;28;20402;-72
2021/06/06 01:57:52;;;;;;;81.93;28.80;;;18.00;1.00;;;;;;5037951;28;20442;-73
2021/06/06 02:00:30;;;;;;;86.80;28.93;;;18.00;1.00;;;;;;5054082;28;20389;-73
2021/06/06 02:02:57;;;;;;;78.20;28.70;;;18.00;1.00;;;;;;5047405;28;20410;-73
2021/06/06 02:05:23;;;;;;;74.80;26.73;;;18.00;1.00;;;;;;5041843;28;20422;-73
2021/06/06 02:07:52;;;;;;;80.37;27.67;;;18.00;1.00;;;;;;5035140;28;20817;-73
2021/06/06 02:10:27;;;;;;;77.00;28.23;;;18.00;1.00;;;;;;5054282;28;20375;-72
2021/06/06 02:13:23;;;;;;;91.23;29.30;;;18.00;1.00;;;;;;5054277;28;20428;-75
2021/06/06 02:15:55;;;;;;;90.43;26.87;;;18.00;1.00;;;;;;5004681;28;20424;-75
2021/06/06 02:18:23;;;;;;;90.93;27.03;;;18.00;1.00;;;;;;4976629;28;21172;-75
2021/06/06 02:20:49;;;;;;;90.17;27.93;;;18.00;1.00;;;;;;5006192;28;20441;-75
2021/06/06 02:23:24;;;;;;;86.23;28.87;;;18.00;1.00;;;;;;5011468;28;20431;-75
2021/06/06 02:26:14;;;;;;;91.83;31.07;;;18.00;1.00;;;;;;5012522;28;20173;-75
2021/06/06 02:29:24;;;;;;;73.00;26.63;;;18.00;1.00;;;;;;5012018;28;20502;-75
2021/06/06 02:32:33;;;;;;;91.50;28.67;;;18.00;1.00;;;;;;4934258;29;20961;-75
2021/06/06 02:35:21;;;;;;;81.53;26.67;;;18.00;1.00;;;;;;4867451;29;20838;-75
2021/06/06 02:37:49;;;;;;;86.23;28.60;;;17.90;1.00;;;;;;4859542;29;20499;-75
2021/06/06 02:40:44;;;;;;;82.97;29.77;;;17.90;1.00;;;;;;4859615;29;20436;-75
2021/06/06 02:43:16;;;;;;;86.93;28.30;;;17.90;1.00;;;;;;4875455;29;20442;-73
2021/06/06 02:45:44;;;;;;;76.50;27.53;;;17.90;1.00;;;;;;4867396;29;20423;-73
2021/06/06 02:48:18;;;;;;;80.07;26.67;;;17.90;1.00;;;;;;4858930;29;20442;-73
2021/06/06 02:50:45;;;;;;;78.90;27.30;;;17.90;1.00;;;;;;4859096;29;20409;-73
2021/06/06 02:53:28;;;;;;;78.13;27.37;;;17.90;1.00;;;;;;4871935;29;20402;-73
2021/06/06 02:56:05;;;;;;;79.07;25.47;;;17.90;1.00;;;;;;4887979;29;20416;-75
2021/06/06 02:58:47;;;;;;;78.70;24.00;;;17.90;1.00;;;;;;4896268;29;20548;-75
2021/06/06 03:01:45;;;;;;;77.07;26.53;;;17.90;1.00;;;;;;4896419;29;20426;-75
2021/06/06 03:04:14;;;;;;;83.40;27.60;;;17.90;1.00;;;;;;4895883;29;20814;-75
2021/06/06 03:06:44;;;;;;;78.43;26.40;;;17.90;1.00;;;;;;4948053;28;20412;-75
2021/06/06 03:09:33;;;;;;;74.83;26.23;;;17.90;1.00;;;;;;5035154;28;20443;-75
2021/06/06 03:12:04;;;;;;;81.60;27.80;;;17.90;1.00;;;;;;5045025;28;20421;-73
2021/06/06 03:14:33;;;;;;;80.30;26.80;;;17.90;1.00;;;;;;5033180;28;20485;-73
2021/06/06 03:17:03;;;;;;;79.90;28.70;;;17.90;1.00;;;;;;5033756;28;20483;-73
2021/06/06 03:19:38;;;;;;;78.40;28.67;;;17.90;1.00;;;;;;5053145;28;20382;-73
2021/06/06 03:22:08;;;;;;;74.40;27.40;;;17.80;1.00;;;;;;5033339;28;20375;-73
2021/06/06 03:24:47;;;;;;;70.57;28.13;;;17.90;1.00;;;;;;5032897;28;20382;-73
2021/06/06 03:27:16;;;;;;;83.90;28.30;;;17.90;1.00;;;;;;5033175;28;20482;-73
2021/06/06 03:30:23;;;;;;;90.37;30.57;;;17.90;1.00;;;;;;5033960;28;20781;-73
2021/06/06 03:32:52;;;;;;;95.07;28.47;;;17.90;1.00;;;;;;4991538;28;20487;-73
2021/06/06 03:35:18;;;;;;;84.40;29.37;;;17.90;1.00;;;;;;4996579;28;20426;-73
2021/06/06 03:37:45;;;;;;;80.53;28.50;;;17.90;1.00;;;;;;5011116;28;20408;-75
2021/06/06 03:40:12;;;;;;;88.67;30.13;;;17.90;1.00;;;;;;4992150;28;20402;-72
2021/06/06 03:42:38;;;;;;;92.43;30.13;;;17.80;1.00;;;;;;4991697;28;20429;-72
2021/06/06 03:45:08;;;;;;;77.53;28.27;;;17.90;1.00;;;;;;4991167;28;20404;-72
2021/06/06 03:47:33;;;;;;;84.60;30.00;;;17.80;1.00;;;;;;4995012;28;20443;-72
2021/06/06 03:50:00;;;;;;;88.87;30.47;;;17.80;1.00;;;;;;4995130;28;20416;-72
2021/06/06 03:52:26;;;;;;;82.73;29.77;;;;;;;;;;4994562;28;20229;-72
2021/06/06 03:54:53;;;;;;;79.40;29.20;;;;;;;;;;4994753;28;20411;-72
2021/06/06 03:58:08;;;;;;;87.47;29.30;;;17.90;1.00;;;;;;4995403;28;20406;-75
2021/06/06 04:00:57;;;;;;;83.30;29.90;;;17.80;1.00;;;;;;4999215;28;20400;-75
2021/06/06 04:03:52;;;;;;;79.27;27.67;;;17.90;1.00;;;;;;5014132;28;20428;-75
2021/06/06 04:06:18;;;;;;;82.73;28.67;;;17.90;1.00;;;;;;5014877;28;20466;-75
2021/06/06 04:09:26;;;;;;;83.03;31.60;;;17.90;1.00;;;;;;5028437;28;20545;-75
2021/06/06 04:11:52;;;;;;;88.00;30.47;;;17.80;1.00;;;;;;5040323;28;20168;-75
2021/06/06 04:14:27;;;;;;;84.70;30.63;;;17.80;1.00;;;;;;5036267;28;20415;-75
2021/06/06 04:17:21;;;;;;;78.20;30.30;;;17.80;1.00;;;;;;5036272;28;20480;-75
2021/06/06 04:20:09;;;;;;;86.17;30.90;;;17.80;1.00;;;;;;5036165;28;20769;-75
2021/06/06 04:22:45;;;;;;;67.87;29.17;;;17.90;1.00;;;;;;5036181;28;20453;-75
2021/06/06 04:25:45;;;;;;;81.57;29.53;;;17.90;1.00;;;;;;5035699;28;20383;-75
2021/06/06 04:28:27;;;;;;;97.73;31.13;;;17.90;1.00;;;;;;5036349;28;20414;-75
2021/06/06 04:31:32;;;;;;;79.93;29.87;;;17.90;1.00;;;;;;5039068;28;20412;-75
2021/06/06 04:33:58;;;;;;;69.43;28.37;;;17.90;1.00;;;;;;5035679;28;20422;-75
2021/06/06 04:36:33;;;;;;;77.10;28.63;;;17.90;1.00;;;;;;5053839;28;20540;-75
2021/06/06 04:39:09;;;;;;;72.33;27.50;;;18.00;1.00;;;;;;5055660;28;20177;-75
2021/06/06 04:42:09;;;;;;;76.33;28.17;;;18.00;1.00;;;;;;5036826;28;20416;-75
2021/06/06 04:44:48;;;;;;;69.00;26.97;;;18.00;1.00;;;;;;5035665;28;20390;-75
2021/06/06 04:47:44;;;;;;;69.03;28.67;;;18.10;1.00;;;;;;5035539;28;20452;-75
2021/06/06 04:50:46;;;;;;;63.30;27.70;;;18.10;1.00;;;;;;5044397;28;20412;-75
2021/06/06 04:53:27;;;;;;;59.23;25.17;;;18.10;1.00;;;;;;5055435;28;20391;-75
2021/06/06 04:56:16;;;;;;;60.57;24.77;;;18.20;1.00;;;;;;5053859;28;20386;-75
2021/06/06 04:58:42;;;;;;;59.13;23.67;;;;;;;;;;5054698;28;20377;-72
2021/06/06 05:01:08;;;;;;;53.60;23.40;;;;;;;;;;5055041;28;20393;-72
2021/06/06 05:03:34;;;;;;;48.00;23.30;;;;;;;;;;5055023;28;20459;-72
2021/06/06 05:06:00;;;;;;;46.70;22.67;;;;;;;;;;5039370;28;20381;-72
2021/06/06 05:08:26;;;;;;;60.50;23.70;;;;;;;;;;5035154;28;20812;-72
2021/06/06 05:10:53;;;;;;;47.27;22.40;;;18.30;1.00;;;;;;5034994;28;20368;-72
2021/06/06 05:13:21;;;;;;;46.77;21.47;;;18.30;1.00;;;;;;5035070;28;20430;-72
2021/06/06 05:15:55;;;;;;;46.37;21.97;;;18.40;1.00;;;;;;5039788;28;20436;-72
2021/06/06 05:18:22;;;;;;;49.03;21.50;;;18.50;1.00;;;;;;5052806;28;20509;-72
2021/06/06 05:20:50;;;;;;;44.07;21.00;;;18.50;1.00;;;;;;5038462;28;20419;-72
2021/06/06 05:23:18;;;;;;;44.53;21.07;;;18.60;1.00;;;;;;5034674;28;20551;-72
2021/06/06 05:25:45;;;;;;;42.03;19.20;;;;;;;;;;5034462;28;20383;-72
2021/06/06 05:28:14;;;;;;;41.03;20.20;;;18.70;1.00;;;;;;5045818;28;20766;-72
2021/06/06 05:30:41;;;;;;;37.07;18.00;;;18.60;1.00;;;;;;5034278;28;20377;-72
2021/06/06 05:33:08;;;;;;;39.07;17.20;;;18.70;1.00;;;;;;5034513;28;20409;-72
2021/06/06 05:35:35;;;;;;;34.90;17.67;;;18.70;1.00;;;;;;5034224;28;20890;-72
2021/06/06 05:38:03;;;;;;;37.17;17.43;;;18.70;1.00;;;;;;5047793;28;20883;-72
2021/06/06 05:40:35;;;;;;;32.10;15.70;;;18.60;1.00;;;;;;5054298;28;20377;-72
2021/06/06 05:43:04;;;;;;;31.60;15.70;;;18.70;1.00;;;;;;5048704;28;20904;-76
2021/06/06 05:45:46;;;;;;;27.87;14.60;;;18.80;1.00;;;;;;5035019;28;20394;-75
2021/06/06 05:48:13;;;;;;;26.77;15.30;;;18.80;1.00;;;;;;5034749;28;20796;-75
2021/06/06 05:50:42;;;;;;;25.43;13.77;;;18.90;1.00;;;;;;5034630;28;20403;-75
2021/06/06 05:53:15;;;;;;;31.13;14.10;;;19.00;1.00;;;;;;5053216;28;20390;-75
2021/06/06 05:55:57;;;;;;;32.30;14.20;;;19.10;1.00;;;;;;5054413;28;20382;-75
2021/06/06 05:58:23;;;;;;;25.10;13.40;;;;;;;;;;5054716;28;20749;-75
2021/06/06 06:01:21;;;;;;;24.90;12.70;;;19.30;1.00;;;;;;5046222;28;20422;-75
2021/06/06 06:03:51;;;;;;;27.70;13.27;;;19.50;1.00;;;;;;5038135;28;20395;-75
2021/06/06 06:06:21;;;;;;;23.00;12.07;;;19.50;1.00;;;;;;5045460;28;20391;-79
2021/06/06 06:08:57;;;;;;;21.60;11.67;;;19.50;1.00;;;;;;5053785;28;20437;-80
2021/06/06 06:18:07;;;;;;;25.70;11.57;;;19.70;1.00;;;;;;5033808;28;20472;-81
2021/06/06 06:24:04;;;;;;;20.30;10.53;;;19.90;1.00;;;;;;5040795;28;20495;-76
2021/06/06 06:26:30;;;;;;;16.80;9.97;;;19.90;1.00;;;;;;5053820;28;20494;-76
2021/06/06 06:28:56;;;;;;;22.47;10.60;;;20.00;1.00;;;;;;5051602;28;20461;-72
2021/06/06 06:31:23;;;;;;;16.40;9.40;;;;;;;;;;5044960;28;20476;-72
2021/06/06 06:33:48;;;;;;;21.20;10.97;;;20.10;1.00;;;;;;5033420;28;20167;-72
2021/06/06 06:36:17;;;;;;;17.57;9.97;;;20.20;1.00;;;;;;5033888;28;20425;-72
2021/06/06 06:38:52;;;;;;;17.43;9.90;;;20.20;1.00;;;;;;5038721;28;20173;-72
2021/06/06 06:41:23;;;;;;;18.83;10.10;;;20.30;1.00;;;;;;5033359;28;20470;-72
2021/06/06 06:43:50;;;;;;;16.80;8.80;;;20.40;1.00;;;;;;5033662;28;20493;-72
2021/06/06 06:46:16;;;;;;;14.83;9.23;;;20.50;1.00;;;;;;5033460;28;20404;-72
2021/06/06 06:48:43;;;;;;;14.70;8.57;;;20.50;1.00;;;;;;5036889;28;20497;-72
2021/06/06 06:51:09;;;;;;;17.37;9.27;;;20.60;1.00;;;;;;5049808;28;20392;-72
2021/06/06 06:53:35;;;;;;;15.20;9.23;;;20.60;1.00;;;;;;5064609;28;20802;-72
2021/06/06 06:56:01;;;;;;;22.23;9.50;;;;;;;;;;5033276;28;20396;-72
2021/06/06 06:58:40;;;;;;;13.87;8.90;;;20.80;1.00;;;;;;5033839;28;20169;-76
2021/06/06 07:01:06;;;;;;;15.57;9.60;;;20.80;1.00;;;;;;5033374;28;20448;-76
2021/06/06 07:03:34;;;;;;;16.10;10.03;;;20.70;1.00;;;;;;5049418;28;20434;-76
2021/06/06 07:06:06;;;;;;;22.20;10.87;;;20.80;1.00;;;;;;5053373;28;20189;-76
2021/06/06 07:08:35;;;;;;;18.13;10.33;;;20.90;1.00;;;;;;5036470;28;20455;-76
2021/06/06 07:11:01;;;;;;;18.83;10.20;;;;;;;;;;5033721;28;20375;-76
2021/06/06 07:13:28;;;;;;;23.90;11.87;;;20.80;1.00;;;;;;5034290;28;20462;-72
2021/06/06 07:15:56;;;;;;;21.20;10.20;;;20.80;1.00;;;;;;5049872;28;20537;-72
2021/06/06 07:18:22;;;;;;;20.57;10.67;;;20.80;1.00;;;;;;5051959;28;20889;-72
2021/06/06 07:20:54;;;;;;;25.33;11.67;;;20.70;1.00;;;;;;5053864;28;20440;-72
2021/06/06 07:23:21;;;;;;;27.20;11.47;;;20.80;1.00;;;;;;5056636;28;20430;-72
2021/06/06 07:25:47;;;;;;;25.00;12.37;;;20.80;1.00;;;;;;5054585;28;20423;-72
2021/06/06 07:28:17;;;;;;;22.70;11.50;;;20.90;1.00;;;;;;5056972;28;20511;-76
2021/06/06 07:31:04;;;;;;;23.90;10.37;;;21.00;1.00;;;;;;5039860;28;20423;-76
2021/06/06 07:33:42;;;;;;;21.20;10.07;;;21.00;1.00;;;;;;5036892;28;20427;-76
2021/06/06 07:36:12;;;;;;;22.60;11.27;;;21.10;1.00;;;;;;5035941;28;20938;-76
2021/06/06 07:38:38;;;;;;;16.20;9.33;;;21.20;1.00;;;;;;5036994;28;20427;-76
2021/06/06 07:41:16;;;;;;;20.10;9.87;;;21.40;1.00;;;;;;5036597;28;20394;-77
2021/06/06 07:43:45;;;;;;;17.83;9.57;;;21.50;1.00;;;;;;5037343;28;20373;-76
2021/06/06 07:46:27;;;;;;;17.57;9.57;;;21.70;1.00;;;;;;5039898;28;20475;-76
2021/06/06 07:48:57;;;;;;;15.27;8.80;;;21.80;1.00;;;;;;5036630;28;20555;-76
2021/06/06 07:51:23;;;;;;;18.13;8.63;;;21.90;1.00;;;;;;5044312;28;20415;-76
2021/06/06 07:53:51;;;;;;;16.70;8.03;;;22.00;1.00;;;;;;5056250;28;20902;-76
2021/06/06 07:56:17;;;;;;;13.83;7.70;;;22.10;1.00;;;;;;5049593;28;20686;-76
2021/06/06 07:58:43;;;;;;;12.50;7.30;;;22.30;1.00;;;;;;5036917;28;20371;-72
2021/06/06 08:01:09;;;;;;;15.10;5.93;;;22.50;1.00;;;;;;5035888;28;20168;-72
2021/06/06 08:03:36;;;;;;;10.53;6.30;;;;;;;;;;5036286;28;20426;-72
2021/06/06 08:06:04;;;;;;;9.43;5.30;;;22.80;1.00;;;;;;5035975;28;20508;-72
2021/06/06 08:08:30;;;;;;;8.40;4.93;;;22.90;1.00;;;;;;5054349;28;20862;-72
2021/06/06 08:10:58;;;;;;;5.77;4.50;;;23.10;1.00;;;;;;5050977;28;20469;-72
2021/06/06 08:13:28;;;;;;;5.97;4.13;;;;;;;;;;5036043;28;20889;-75
2021/06/06 08:15:55;;;;;;;6.40;3.93;;;23.40;1.00;;;;;;5036799;28;20455;-72
2021/06/06 08:18:33;;;;;;;5.60;3.90;;;23.50;1.00;;;;;;5048033;28;20427;-72
2021/06/06 08:21:13;;;;;;;4.13;3.23;;;23.50;1.00;;;;;;5055836;28;20886;-72
2021/06/06 08:23:39;;;;;;;5.60;3.60;;;23.50;1.00;;;;;;5053723;28;20752;-73
2021/06/06 08:26:06;;;;;;;4.47;2.83;;;23.60;1.00;;;;;;5055701;28;20406;-73
2021/06/06 08:28:33;;;;;;;3.90;3.07;;;23.60;1.00;;;;;;5055780;28;20553;-73
2021/06/06 08:31:03;;;;;;;3.00;2.77;;;23.60;1.00;;;;;;5051920;28;20923;-73
2021/06/06 08:33:31;;;;;;;4.57;3.00;;;23.70;1.00;;;;;;5034763;28;20435;-73
2021/06/06 08:35:59;;;;;;;3.60;3.03;;;23.50;1.00;;;;;;5038975;28;20495;-73
2021/06/06 08:38:27;;;;;;;4.10;3.30;;;23.50;1.00;;;;;;5034519;28;20908;-73
2021/06/06 08:41:06;;;;;;;3.33;3.03;;;23.60;1.00;;;;;;5035680;28;20461;-73
2021/06/06 08:43:47;;;;;;;3.80;2.80;;;23.80;1.00;;;;;;5034315;28;20431;-73
2021/06/06 08:46:17;;;;;;;3.53;2.67;;;23.80;1.00;;;;;;5034037;28;20457;-81
2021/06/06 08:52:39;;;;;;;2.27;2.07;;;24.30;1.00;;;;;;5034921;28;20422;-81
2021/06/06 08:55:08;;;;;;;2.40;2.10;;;24.60;1.00;;;;;;5035320;28;20756;-77
2021/06/06 08:58:09;;;;;;;2.10;2.00;;;24.70;1.00;;;;;;5050410;28;20424;-76
2021/06/06 09:00:39;;;;;;;3.67;2.70;;;24.80;1.00;;;;;;5055216;28;20439;-76
2021/06/06 09:03:09;;;;;;;2.50;2.27;;;24.80;1.00;;;;;;5055025;28;20445;-76
2021/06/06 09:05:41;;;;;;;2.60;2.40;;;25.10;1.00;;;;;;5053061;28;20412;-75
2021/06/06 09:08:17;;;;;;;3.07;2.10;;;25.40;1.00;;;;;;5037353;28;20457;-75
2021/06/06 09:10:53;;;;;;;2.20;2.00;;;25.50;1.00;;;;;;5035025;28;20414;-79
2021/06/06 09:13:20;;;;;;;3.30;2.70;;;25.60;1.00;;;;;;5035235;28;20405;-78
2021/06/06 09:16:21;;;;;;;3.87;2.10;;;25.50;1.00;;;;;;5035448;28;20955;-79
2021/06/06 09:22:08;;;;;;;2.90;2.60;;;25.90;1.00;;;;;;5054615;28;20367;-81
2021/06/06 09:24:46;;;;;;;6.10;2.80;;;25.90;1.00;;;;;;5054465;28;20751;-80
2021/06/06 09:33:55;;;;;;;2.30;2.10;;;26.60;1.00;;;;;;5052054;28;20425;-80
2021/06/06 09:37:03;;;;;;;2.60;2.40;;;26.70;1.00;;;;;;5045315;28;20837;-80
2021/06/06 09:42:51;;;;;;;2.33;2.13;;;26.50;1.00;;;;;;5054215;28;20392;-80
2021/06/06 09:45:36;;;;;;;3.10;2.80;;;26.60;1.00;;;;;;5053098;28;20424;-80
2021/06/06 09:58:22;;;;;;;2.73;2.53;;;26.40;1.00;;;;;;5034120;28;20505;-80
2021/06/06 10:01:21;;;;;;;4.20;3.00;;;26.40;1.00;;;;;;5034441;28;20492;-80
2021/06/06 10:11:15;;;;;;;4.53;3.03;;;26.20;1.00;;;;;;5050728;28;20458;-80
2021/06/06 10:14:11;;;;;;;4.23;2.90;;;26.20;1.00;;;;;;5052253;28;20419;-80
2021/06/06 10:16:41;;;;;;;4.33;3.10;;;26.20;1.00;;;;;;5053700;28;20758;-80
2021/06/06 10:29:37;;;;;;;6.30;3.20;;;26.10;1.00;;;;;;5033677;28;20965;-80
2021/06/06 10:32:28;;;;;;;3.83;3.37;;;26.10;1.00;;;;;;5033980;28;20404;-80
2021/06/06 10:39:09;;;;;;;3.57;3.27;;;26.20;1.00;;;;;;5033394;28;20446;-80
2021/06/06 10:42:03;;;;;;;4.57;3.20;;;26.30;1.00;;;;;;5033416;28;20388;-80
2021/06/06 10:44:53;;;;;;;4.30;3.50;;;25.90;1.00;;;;;;5038115;28;20876;-75
2021/06/06 10:47:36;;;;;;;6.90;3.70;;;26.20;1.00;;;;;;5047512;28;20488;-72
2021/06/06 10:50:14;;;;;;;5.93;3.87;;;26.20;1.00;;;;;;5053077;28;20890;-72
2021/06/06 10:52:41;;;;;;;5.83;3.70;;;;;;;;;;5052890;28;20399;-72
2021/06/06 10:55:29;;;;;;;6.23;3.57;;;26.00;1.00;;;;;;5034314;28;20910;-72
2021/06/06 10:57:55;;;;;;;5.80;3.60;;;26.00;1.00;;;;;;5037238;28;20461;-72
2021/06/06 11:00:37;;;;;;;6.10;4.50;;;26.10;1.00;;;;;;5037882;28;20413;-72
2021/06/06 11:03:11;;;;;;;7.20;4.00;;;26.40;1.00;;;;;;5037160;28;20402;-72
2021/06/06 11:05:50;;;;;;;6.13;3.50;;;26.40;1.00;;;;;;5056791;28;20455;-72
2021/06/06 11:08:41;;;;;;;7.70;3.77;;;26.40;1.00;;;;;;5056830;28;20805;-73
2021/06/06 11:11:10;;;;;;;5.10;4.00;;;26.00;1.00;;;;;;5052204;28;20478;-72
2021/06/06 11:13:59;;;;;;;3.90;3.50;;;26.00;1.00;;;;;;5057001;28;20404;-72
2021/06/06 11:16:36;;;;;;;3.73;3.30;;;25.80;1.00;;;;;;5015360;28;20440;-74
2021/06/06 11:19:09;;;;;;;4.23;3.40;;;25.70;1.00;;;;;;5014676;28;20435;-74
2021/06/06 11:21:35;;;;;;;3.43;2.90;;;;;;;;;;5014301;28;20512;-74
2021/06/06 11:24:22;;;;;;;6.10;3.10;;;25.20;1.00;;;;;;5014386;28;20506;-74
2021/06/06 11:27:02;;;;;;;4.37;3.47;;;25.00;1.00;;;;;;4936626;29;20524;-74
2021/06/06 11:29:40;;;;;;;4.60;3.77;;;24.90;1.00;;;;;;4936724;29;20439;-74
2021/06/06 11:32:12;;;;;;;7.53;3.87;;;24.70;1.00;;;;;;4936609;29;20405;-74
2021/06/06 11:34:45;;;;;;;4.60;3.60;;;24.60;1.00;;;;;;4936426;29;20450;-74
2021/06/06 11:37:35;;;;;;;7.17;3.93;;;24.40;1.00;;;;;;4936158;29;20905;-74
2021/06/06 11:40:32;;;;;;;3.90;3.27;;;24.40;1.00;;;;;;4935974;29;20797;-74
2021/06/06 11:43:28;;;;;;;4.10;3.10;;;24.20;1.00;;;;;;4936431;29;20403;-74
2021/06/06 11:46:00;;;;;;;4.83;3.70;;;24.10;1.00;;;;;;4936615;29;20413;-74
2021/06/06 11:48:34;;;;;;;6.17;3.73;;;23.90;1.00;;;;;;4936303;29;20475;-74
2021/06/06 11:51:02;;;;;;;6.13;4.13;;;23.90;1.00;;;;;;4936288;29;20445;-74
2021/06/06 11:53:33;;;;;;;12.93;3.93;;;24.00;1.00;;;;;;4956548;28;20509;-74
2021/06/06 11:56:12;;;;;;;5.60;3.83;;;24.10;1.00;;;;;;4974623;28;20494;-74
2021/06/06 11:58:47;;;;;;;5.00;3.60;;;24.20;1.00;;;;;;4974489;28;20929;-74
2021/06/06 12:01:23;;;;;;;3.70;3.23;;;24.20;1.00;;;;;;4974774;28;20428;-72
2021/06/06 12:03:51;;;;;;;5.53;4.20;;;24.30;1.00;;;;;;5012187;28;20507;-72
2021/06/06 12:06:19;;;;;;;4.07;3.50;;;24.40;1.00;;;;;;5055077;28;20413;-72
2021/06/06 12:08:59;;;;;;;7.37;4.60;;;24.50;1.00;;;;;;5055551;28;20546;-72
2021/06/06 12:11:31;;;;;;;8.83;4.77;;;24.60;1.00;;;;;;5055270;28;20411;-72
2021/06/06 12:14:21;;;;;;;4.20;3.73;;;24.80;1.00;;;;;;5055274;28;20399;-72
2021/06/06 12:16:54;;;;;;;4.87;4.00;;;25.10;1.00;;;;;;5055655;28;20409;-74
2021/06/06 12:19:23;;;;;;;5.20;4.30;;;25.20;1.00;;;;;;5055132;28;20892;-74
2021/06/06 12:22:06;;;;;;;7.07;3.73;;;25.40;1.00;;;;;;5054969;28;20409;-74
2021/06/06 12:24:32;;;;;;;5.23;4.20;;;;;;;;;;5055161;28;20497;-74
2021/06/06 12:27:30;;;;;;;11.03;4.63;;;25.10;1.00;;;;;;5055106;28;20394;-74
2021/06/06 12:29:58;;;;;;;4.10;3.70;;;25.10;1.00;;;;;;5054364;28;20542;-74
2021/06/06 12:32:31;;;;;;;10.00;3.67;;;25.20;1.00;;;;;;5055340;28;20405;-73
2021/06/06 12:35:03;;;;;;;10.03;4.60;;;25.30;1.00;;;;;;5054766;28;20872;-72
2021/06/06 12:37:31;;;;;;;6.70;4.73;;;25.40;1.00;;;;;;5070162;28;20411;-73
2021/06/06 12:40:00;;;;;;;5.90;4.10;;;25.50;1.00;;;;;;5054779;28;20400;-73
2021/06/06 12:42:27;;;;;;;5.20;4.27;;;25.50;1.00;;;;;;5048081;28;20422;-73
2021/06/06 12:44:59;;;;;;;7.00;4.27;;;25.40;1.00;;;;;;5049312;28;20403;-72
2021/06/06 12:47:35;;;;;;;6.57;4.07;;;25.40;1.00;;;;;;5055750;28;20476;-74
2021/06/06 12:50:18;;;;;;;6.10;4.50;;;25.00;1.00;;;;;;5055544;28;20389;-74
2021/06/06 12:52:49;;;;;;;8.43;3.90;;;25.00;1.00;;;;;;5049410;28;20483;-75
2021/06/06 12:55:35;;;;;;;5.53;4.00;;;24.90;1.00;;;;;;5031791;28;20412;-74
2021/06/06 12:58:14;;;;;;;5.43;4.43;;;25.00;1.00;;;;;;5069458;28;20906;-74
2021/06/06 13:00:46;;;;;;;6.40;3.90;;;24.80;1.00;;;;;;5035246;28;20398;-74
2021/06/06 13:03:31;;;;;;;4.10;3.60;;;24.80;1.00;;;;;;5035298;28;20554;-73
2021/06/06 13:06:11;;;;;;;6.00;4.73;;;24.70;1.00;;;;;;5053926;28;20410;-73
2021/06/06 13:08:38;;;;;;;6.20;4.50;;;24.60;1.00;;;;;;5054389;28;20456;-74
2021/06/06 13:11:29;;;;;;;12.97;4.63;;;24.60;1.00;;;;;;5062207;28;20746;-72
2021/06/06 13:14:21;;;;;;;7.30;4.00;;;24.50;1.00;;;;;;5053257;28;20513;-73
2021/06/06 13:17:01;;;;;;;6.43;4.27;;;24.40;1.00;;;;;;5042488;28;20416;-74
2021/06/06 13:19:31;;;;;;;7.60;4.50;;;24.30;1.00;;;;;;5034307;28;20396;-74
2021/06/06 13:21:57;;;;;;;4.90;4.10;;;24.10;1.00;;;;;;5034552;28;20466;-74
2021/06/06 13:24:23;;;;;;;8.93;4.23;;;23.90;1.00;;;;;;5052448;28;20424;-74
2021/06/06 13:26:50;;;;;;;30.43;6.93;;;23.80;1.00;;;;;;5054025;28;20294;-73
2021/06/06 13:29:32;;;;;;;6.37;4.23;;;23.70;1.00;;;;;;5054088;28;20206;-73
2021/06/06 13:32:07;;;;;;;7.40;4.60;;;23.50;1.00;;;;;;5054233;28;20413;-74
2021/06/06 13:34:33;;;;;;;7.20;4.63;;;23.40;1.00;;;;;;5052333;28;20502;-74
2021/06/06 13:37:04;;;;;;;5.30;4.47;;;23.20;1.00;;;;;;5054347;28;20496;-74
2021/06/06 13:39:36;;;;;;;7.20;4.90;;;23.00;1.00;;;;;;5052917;28;20603;-74
2021/06/06 13:42:10;;;;;;;6.10;4.57;;;22.80;1.00;;;;;;5053509;28;20902;-74
2021/06/06 13:44:36;;;;;;;6.60;4.60;;;;;;;;;;5039496;28;20400;-74
2021/06/06 13:47:03;;;;;;;7.83;4.53;;;22.40;1.00;;;;;;5034729;28;20485;-71
2021/06/06 13:52:52;;;;;;;7.63;5.30;;;22.30;1.00;;;;;;5034373;28;20519;-78
2021/06/06 13:55:39;;;;;;;10.27;5.53;;;22.20;1.00;;;;;;5034093;28;20389;-78
2021/06/06 13:58:16;;;;;;;9.50;5.57;;;22.10;1.00;;;;;;5034569;28;20922;-77
2021/06/06 14:01:03;;;;;;;8.03;4.80;;;22.10;1.00;;;;;;5034162;28;20402;-78
2021/06/06 14:03:57;;;;;;;11.53;5.93;;;22.00;1.00;;;;;;5054109;28;20427;-82
2021/06/06 14:06:34;;;;;;;9.53;5.80;;;22.00;1.00;;;;;;5053981;28;20387;-81
2021/06/06 14:09:07;;;;;;;7.43;5.67;;;22.10;1.00;;;;;;5039887;28;20519;-81
2021/06/06 14:11:37;;;;;;;10.00;5.60;;;22.10;1.00;;;;;;5066209;28;20418;-82
2021/06/06 14:14:13;;;;;;;40.40;9.00;;;22.20;1.00;;;;;;5069605;28;20399;-81
2021/06/06 14:16:39;;;;;;;7.87;5.43;;;22.20;1.00;;;;;;5053114;28;20474;-80
2021/06/06 14:19:18;;;;;;;9.83;6.20;;;22.30;1.00;;;;;;5052126;28;20433;-77
2021/06/06 14:21:45;;;;;;;9.40;6.23;;;22.30;1.00;;;;;;5053159;28;20274;-77
2021/06/06 14:24:14;;;;;;;9.63;5.30;;;22.40;1.00;;;;;;5051838;28;20428;-78
2021/06/06 14:27:00;;;;;;;17.83;6.50;;;22.40;1.00;;;;;;5053426;28;20370;-77
2021/06/06 14:29:57;;;;;;;11.47;7.23;;;22.20;1.00;;;;;;5049108;28;20873;-77
2021/06/06 14:32:45;;;;;;;14.50;8.23;;;22.10;1.00;;;;;;5053404;28;20408;-78
2021/06/06 14:35:39;;;;;;;15.53;8.37;;;22.00;1.00;;;;;;5053424;28;20392;-83